sensor_id;sensor_type;location;lat;lon;timestamp;temperature;humidity
16243;DHT22;11719;51.052;6.982;2023-07-31T00:02:15;20.80;99.90
16243;DHT22;11719;51.052;6.982;2023-07-31T00:04:40;20.80;99.90
16243;DHT22;11719;51.052;6.982;2023-07-31T00:07:06;20.80;99.90
16243;DHT22;11719;51.052;6.982;2023-07-31T00:09:33;20.80;99.90
16243;DHT22;11719;51.052;6.982;2023-07-31T00:11:59;20.80;99.90
16243;DHT22;11719;51.052;6.982;2023-07-31T00:14:25;20.80;99.90
16243;DHT22;11719;51.052;6.982;2023-07-31T00:16:51;20.90;99.90
16243;DHT22;11719;51.052;6.982;2023-07-31T00:19:16;20.90;99.90
16243;DHT22;11719;51.052;6.982;2023-07-31T00:21:43;20.80;99.90
16243;DHT22;11719;51.052;6.982;2023-07-31T00:24:09;20.80;99.90
16243;DHT22;11719;51.052;6.982;2023-07-31T00:26:35;20.80;99.90
16243;DHT22;11719;51.052;6.982;2023-07-31T00:29:01;20.90;99.90
16243;DHT22;11719;51.052;6.982;2023-07-31T00:31:27;20.80;99.90
16243;DHT22;11719;51.052;6.982;2023-07-31T00:33:52;20.90;99.90
16243;DHT22;11719;51.052;6.982;2023-07-31T00:36:18;20.90;99.90
16243;DHT22;11719;51.052;6.982;2023-07-31T00:38:44;20.90;99.90
16243;DHT22;11719;51.052;6.982;2023-07-31T00:41:09;20.90;99.90
16243;DHT22;11719;51.052;6.982;2023-07-31T00:43:35;20.90;99.90
16243;DHT22;11719;51.052;6.982;2023-07-31T00:46:01;20.90;99.90
16243;DHT22;11719;51.052;6.982;2023-07-31T00:48:27;20.90;99.90
16243;DHT22;11719;51.052;6.982;2023-07-31T00:50:52;20.90;99.90
16243;DHT22;11719;51.052;6.982;2023-07-31T00:53:18;20.90;99.90
16243;DHT22;11719;51.052;6.982;2023-07-31T00:55:44;20.90;99.90
16243;DHT22;11719;51.052;6.982;2023-07-31T00:58:10;20.90;99.90
16243;DHT22;11719;51.052;6.982;2023-07-31T01:00:36;20.90;99.90
16243;DHT22;11719;51.052;6.982;2023-07-31T01:03:02;20.90;99.90
16243;DHT22;11719;51.052;6.982;2023-07-31T01:11:38;20.90;99.90
16243;DHT22;11719;51.052;6.982;2023-07-31T01:14:15;20.90;99.90
16243;DHT22;11719;51.052;6.982;2023-07-31T01:16:41;20.80;99.90
16243;DHT22;11719;51.052;6.982;2023-07-31T01:19:09;20.90;99.90
16243;DHT22;11719;51.052;6.982;2023-07-31T01:27:28;20.80;99.90
16243;DHT22;11719;51.052;6.982;2023-07-31T01:30:15;20.80;99.90
16243;DHT22;11719;51.052;6.982;2023-07-31T01:32:43;20.80;99.90
16243;DHT22;11719;51.052;6.982;2023-07-31T01:35:10;20.80;99.90
16243;DHT22;11719;51.052;6.982;2023-07-31T01:37:36;20.80;99.90
16243;DHT22;11719;51.052;6.982;2023-07-31T01:40:02;20.80;99.90
16243;DHT22;11719;51.052;6.982;2023-07-31T01:42:28;20.80;99.90
16243;DHT22;11719;51.052;6.982;2023-07-31T01:44:54;20.80;99.90
16243;DHT22;11719;51.052;6.982;2023-07-31T01:47:20;20.80;99.90
16243;DHT22;11719;51.052;6.982;2023-07-31T01:49:46;20.80;99.90
16243;DHT22;11719;51.052;6.982;2023-07-31T01:52:11;20.80;99.90
16243;DHT22;11719;51.052;6.982;2023-07-31T01:54:37;20.80;99.90
16243;DHT22;11719;51.052;6.982;2023-07-31T01:57:03;20.80;99.90
16243;DHT22;11719;51.052;6.982;2023-07-31T01:59:29;20.80;99.90
16243;DHT22;11719;51.052;6.982;2023-07-31T02:01:55;20.90;99.90
16243;DHT22;11719;51.052;6.982;2023-07-31T02:04:20;20.90;99.90
16243;DHT22;11719;51.052;6.982;2023-07-31T02:06:46;20.90;99.90
16243;DHT22;11719;51.052;6.982;2023-07-31T02:09:12;20.90;99.90
16243;DHT22;11719;51.052;6.982;2023-07-31T02:11:38;20.90;99.90
16243;DHT22;11719;51.052;6.982;2023-07-31T02:14:03;20.90;99.90
16243;DHT22;11719;51.052;6.982;2023-07-31T02:16:29;21.00;99.90
16243;DHT22;11719;51.052;6.982;2023-07-31T02:18:55;21.00;99.90
16243;DHT22;11719;51.052;6.982;2023-07-31T02:21:21;21.00;99.90
16243;DHT22;11719;51.052;6.982;2023-07-31T02:23:46;21.00;99.90
16243;DHT22;11719;51.052;6.982;2023-07-31T02:26:12;21.00;99.90
16243;DHT22;11719;51.052;6.982;2023-07-31T02:28:38;21.00;99.90
16243;DHT22;11719;51.052;6.982;2023-07-31T02:31:04;21.00;99.90
16243;DHT22;11719;51.052;6.982;2023-07-31T02:33:29;21.00;99.90
16243;DHT22;11719;51.052;6.982;2023-07-31T02:35:55;21.00;99.90
16243;DHT22;11719;51.052;6.982;2023-07-31T02:38:21;21.00;99.90
16243;DHT22;11719;51.052;6.982;2023-07-31T02:40:47;21.00;99.90
16243;DHT22;11719;51.052;6.982;2023-07-31T02:43:13;21.00;99.90
16243;DHT22;11719;51.052;6.982;2023-07-31T02:45:39;21.00;99.90
16243;DHT22;11719;51.052;6.982;2023-07-31T02:48:05;21.00;99.90
16243;DHT22;11719;51.052;6.982;2023-07-31T02:50:31;21.10;99.90
16243;DHT22;11719;51.052;6.982;2023-07-31T02:52:57;21.10;99.90
16243;DHT22;11719;51.052;6.982;2023-07-31T02:55:23;21.10;99.90
16243;DHT22;11719;51.052;6.982;2023-07-31T02:57:49;21.10;99.90
16243;DHT22;11719;51.052;6.982;2023-07-31T03:00:15;21.10;99.90
16243;DHT22;11719;51.052;6.982;2023-07-31T03:02:40;21.00;99.90
16243;DHT22;11719;51.052;6.982;2023-07-31T03:05:06;21.00;99.90
16243;DHT22;11719;51.052;6.982;2023-07-31T03:07:32;21.10;99.90
16243;DHT22;11719;51.052;6.982;2023-07-31T03:09:58;21.10;99.90
16243;DHT22;11719;51.052;6.982;2023-07-31T03:12:24;21.10;99.90
16243;DHT22;11719;51.052;6.982;2023-07-31T03:14:50;21.00;99.90
16243;DHT22;11719;51.052;6.982;2023-07-31T03:17:15;21.10;99.90
16243;DHT22;11719;51.052;6.982;2023-07-31T03:19:41;21.10;99.90
16243;DHT22;11719;51.052;6.982;2023-07-31T03:22:07;21.00;99.90
16243;DHT22;11719;51.052;6.982;2023-07-31T03:24:32;21.00;99.90
16243;DHT22;11719;51.052;6.982;2023-07-31T03:26:58;20.90;99.90
16243;DHT22;11719;51.052;6.982;2023-07-31T03:29:24;20.90;99.90
16243;DHT22;11719;51.052;6.982;2023-07-31T03:31:50;21.00;99.90
16243;DHT22;11719;51.052;6.982;2023-07-31T03:34:15;21.00;99.90
16243;DHT22;11719;51.052;6.982;2023-07-31T03:36:41;21.00;99.90
16243;DHT22;11719;51.052;6.982;2023-07-31T03:39:07;21.00;99.90
16243;DHT22;11719;51.052;6.982;2023-07-31T03:41:33;21.00;99.90
16243;DHT22;11719;51.052;6.982;2023-07-31T03:43:59;21.00;99.90
16243;DHT22;11719;51.052;6.982;2023-07-31T03:46:24;21.00;99.90
16243;DHT22;11719;51.052;6.982;2023-07-31T03:48:51;21.00;99.90
16243;DHT22;11719;51.052;6.982;2023-07-31T03:51:17;21.00;99.90
16243;DHT22;11719;51.052;6.982;2023-07-31T03:53:43;21.10;99.90
16243;DHT22;11719;51.052;6.982;2023-07-31T03:56:10;21.10;99.90
16243;DHT22;11719;51.052;6.982;2023-07-31T03:58:36;21.10;99.90
16243;DHT22;11719;51.052;6.982;2023-07-31T04:01:02;21.10;99.90
16243;DHT22;11719;51.052;6.982;2023-07-31T04:03:29;21.10;99.90
16243;DHT22;11719;51.052;6.982;2023-07-31T04:05:55;21.10;99.90
16243;DHT22;11719;51.052;6.982;2023-07-31T04:08:22;21.10;99.90
16243;DHT22;11719;51.052;6.982;2023-07-31T04:10:48;21.10;99.90
16243;DHT22;11719;51.052;6.982;2023-07-31T04:13:14;21.10;99.90
16243;DHT22;11719;51.052;6.982;2023-07-31T04:15:40;21.10;99.90
16243;DHT22;11719;51.052;6.982;2023-07-31T04:18:06;21.10;99.90
16243;DHT22;11719;51.052;6.982;2023-07-31T04:20:32;21.10;99.90
16243;DHT22;11719;51.052;6.982;2023-07-31T04:22:58;21.10;99.90
16243;DHT22;11719;51.052;6.982;2023-07-31T04:25:24;21.10;99.90
16243;DHT22;11719;51.052;6.982;2023-07-31T04:27:50;21.10;99.90
16243;DHT22;11719;51.052;6.982;2023-07-31T04:30:15;21.10;99.90
16243;DHT22;11719;51.052;6.982;2023-07-31T04:32:41;21.10;99.90
16243;DHT22;11719;51.052;6.982;2023-07-31T04:35:07;21.10;99.90
16243;DHT22;11719;51.052;6.982;2023-07-31T04:37:33;21.10;99.90
16243;DHT22;11719;51.052;6.982;2023-07-31T04:39:59;21.10;99.90
16243;DHT22;11719;51.052;6.982;2023-07-31T04:42:24;21.10;99.90
16243;DHT22;11719;51.052;6.982;2023-07-31T04:44:50;21.10;99.90
16243;DHT22;11719;51.052;6.982;2023-07-31T04:47:18;21.10;99.90
16243;DHT22;11719;51.052;6.982;2023-07-31T04:49:44;21.10;99.90
16243;DHT22;11719;51.052;6.982;2023-07-31T04:52:10;21.10;99.90
16243;DHT22;11719;51.052;6.982;2023-07-31T04:54:36;21.10;99.90
16243;DHT22;11719;51.052;6.982;2023-07-31T04:57:01;21.00;99.90
16243;DHT22;11719;51.052;6.982;2023-07-31T04:59:27;21.00;99.90
16243;DHT22;11719;51.052;6.982;2023-07-31T05:01:53;21.10;99.90
16243;DHT22;11719;51.052;6.982;2023-07-31T05:04:19;21.10;99.90
16243;DHT22;11719;51.052;6.982;2023-07-31T05:06:44;21.00;99.90
16243;DHT22;11719;51.052;6.982;2023-07-31T05:09:10;21.00;99.90
16243;DHT22;11719;51.052;6.982;2023-07-31T05:11:36;21.00;99.90
16243;DHT22;11719;51.052;6.982;2023-07-31T05:14:01;21.00;99.90
16243;DHT22;11719;51.052;6.982;2023-07-31T05:16:27;21.00;99.90
16243;DHT22;11719;51.052;6.982;2023-07-31T05:18:53;21.00;99.90
16243;DHT22;11719;51.052;6.982;2023-07-31T05:21:19;20.90;99.90
16243;DHT22;11719;51.052;6.982;2023-07-31T05:23:44;20.80;99.90
16243;DHT22;11719;51.052;6.982;2023-07-31T05:26:10;20.90;99.90
16243;DHT22;11719;51.052;6.982;2023-07-31T05:28:37;20.90;99.90
16243;DHT22;11719;51.052;6.982;2023-07-31T05:31:04;20.90;99.90
16243;DHT22;11719;51.052;6.982;2023-07-31T05:33:30;20.90;99.90
16243;DHT22;11719;51.052;6.982;2023-07-31T05:35:56;20.90;99.90
16243;DHT22;11719;51.052;6.982;2023-07-31T05:38:22;20.90;99.90
16243;DHT22;11719;51.052;6.982;2023-07-31T05:40:49;20.90;99.90
16243;DHT22;11719;51.052;6.982;2023-07-31T05:43:14;20.90;99.90
16243;DHT22;11719;51.052;6.982;2023-07-31T05:45:42;20.80;99.90
16243;DHT22;11719;51.052;6.982;2023-07-31T05:48:08;20.90;99.90
16243;DHT22;11719;51.052;6.982;2023-07-31T05:50:33;20.80;99.90
16243;DHT22;11719;51.052;6.982;2023-07-31T05:52:59;20.80;99.90
16243;DHT22;11719;51.052;6.982;2023-07-31T05:55:25;20.80;99.90
16243;DHT22;11719;51.052;6.982;2023-07-31T05:57:54;20.80;99.90
16243;DHT22;11719;51.052;6.982;2023-07-31T06:00:20;20.80;99.90
16243;DHT22;11719;51.052;6.982;2023-07-31T06:02:49;20.80;99.90
16243;DHT22;11719;51.052;6.982;2023-07-31T06:05:15;20.80;99.90
16243;DHT22;11719;51.052;6.982;2023-07-31T06:07:41;20.80;99.90
16243;DHT22;11719;51.052;6.982;2023-07-31T06:10:07;20.90;99.90
16243;DHT22;11719;51.052;6.982;2023-07-31T06:12:34;20.90;99.90
16243;DHT22;11719;51.052;6.982;2023-07-31T06:15:02;20.90;99.90
16243;DHT22;11719;51.052;6.982;2023-07-31T06:17:28;20.90;99.90
16243;DHT22;11719;51.052;6.982;2023-07-31T06:19:55;20.90;99.90
16243;DHT22;11719;51.052;6.982;2023-07-31T06:22:22;20.90;99.90
16243;DHT22;11719;51.052;6.982;2023-07-31T06:24:47;20.90;99.90
16243;DHT22;11719;51.052;6.982;2023-07-31T06:27:13;20.90;99.90
16243;DHT22;11719;51.052;6.982;2023-07-31T06:29:39;20.90;99.90
16243;DHT22;11719;51.052;6.982;2023-07-31T06:32:05;20.80;99.90
16243;DHT22;11719;51.052;6.982;2023-07-31T06:34:31;20.80;99.90
16243;DHT22;11719;51.052;6.982;2023-07-31T06:36:57;20.70;99.90
16243;DHT22;11719;51.052;6.982;2023-07-31T06:39:22;20.60;99.90
16243;DHT22;11719;51.052;6.982;2023-07-31T06:41:48;20.60;99.90
16243;DHT22;11719;51.052;6.982;2023-07-31T06:44:14;20.60;99.90
16243;DHT22;11719;51.052;6.982;2023-07-31T06:46:40;20.60;99.90
16243;DHT22;11719;51.052;6.982;2023-07-31T06:49:06;20.60;99.90
16243;DHT22;11719;51.052;6.982;2023-07-31T06:51:31;20.70;99.90
16243;DHT22;11719;51.052;6.982;2023-07-31T06:53:58;20.70;99.90
16243;DHT22;11719;51.052;6.982;2023-07-31T06:56:24;20.70;99.90
16243;DHT22;11719;51.052;6.982;2023-07-31T06:58:49;20.70;99.90
16243;DHT22;11719;51.052;6.982;2023-07-31T07:01:15;20.70;99.90
16243;DHT22;11719;51.052;6.982;2023-07-31T07:03:41;20.70;99.90
16243;DHT22;11719;51.052;6.982;2023-07-31T07:06:07;20.70;99.90
16243;DHT22;11719;51.052;6.982;2023-07-31T07:08:32;20.70;99.90
16243;DHT22;11719;51.052;6.982;2023-07-31T07:10:58;20.70;99.90
16243;DHT22;11719;51.052;6.982;2023-07-31T07:13:24;20.70;99.90
16243;DHT22;11719;51.052;6.982;2023-07-31T07:15:50;20.70;99.90
16243;DHT22;11719;51.052;6.982;2023-07-31T07:18:17;20.80;99.90
16243;DHT22;11719;51.052;6.982;2023-07-31T07:20:50;20.80;99.90
16243;DHT22;11719;51.052;6.982;2023-07-31T07:23:17;20.80;99.90
16243;DHT22;11719;51.052;6.982;2023-07-31T07:25:45;20.80;99.90
16243;DHT22;11719;51.052;6.982;2023-07-31T07:28:12;20.80;99.90
16243;DHT22;11719;51.052;6.982;2023-07-31T07:30:37;20.80;99.90
16243;DHT22;11719;51.052;6.982;2023-07-31T07:33:03;20.80;99.90
16243;DHT22;11719;51.052;6.982;2023-07-31T07:35:29;20.80;99.90
16243;DHT22;11719;51.052;6.982;2023-07-31T07:37:55;20.80;99.90
16243;DHT22;11719;51.052;6.982;2023-07-31T07:40:22;20.80;99.90
16243;DHT22;11719;51.052;6.982;2023-07-31T07:42:48;20.70;99.90
16243;DHT22;11719;51.052;6.982;2023-07-31T07:45:13;20.70;99.90
16243;DHT22;11719;51.052;6.982;2023-07-31T07:47:41;20.70;99.90
16243;DHT22;11719;51.052;6.982;2023-07-31T07:50:07;20.70;99.90
16243;DHT22;11719;51.052;6.982;2023-07-31T07:52:33;20.70;99.90
16243;DHT22;11719;51.052;6.982;2023-07-31T07:54:59;20.70;99.90
16243;DHT22;11719;51.052;6.982;2023-07-31T07:57:25;20.80;99.90
16243;DHT22;11719;51.052;6.982;2023-07-31T07:59:52;20.70;99.90
16243;DHT22;11719;51.052;6.982;2023-07-31T08:02:17;20.80;99.90
16243;DHT22;11719;51.052;6.982;2023-07-31T08:04:43;20.70;99.90
16243;DHT22;11719;51.052;6.982;2023-07-31T08:07:12;20.70;99.90
16243;DHT22;11719;51.052;6.982;2023-07-31T08:09:39;20.70;99.90
16243;DHT22;11719;51.052;6.982;2023-07-31T08:12:05;20.70;99.90
16243;DHT22;11719;51.052;6.982;2023-07-31T08:14:31;20.70;99.90
16243;DHT22;11719;51.052;6.982;2023-07-31T08:16:57;20.70;99.90
16243;DHT22;11719;51.052;6.982;2023-07-31T08:19:23;20.70;99.90
16243;DHT22;11719;51.052;6.982;2023-07-31T08:21:49;20.60;99.90
16243;DHT22;11719;51.052;6.982;2023-07-31T08:24:14;20.70;99.90
16243;DHT22;11719;51.052;6.982;2023-07-31T08:26:40;20.60;99.90
16243;DHT22;11719;51.052;6.982;2023-07-31T08:29:06;20.60;99.90
16243;DHT22;11719;51.052;6.982;2023-07-31T08:31:32;20.60;99.90
16243;DHT22;11719;51.052;6.982;2023-07-31T08:33:58;20.60;99.90
16243;DHT22;11719;51.052;6.982;2023-07-31T08:36:23;20.70;99.90
16243;DHT22;11719;51.052;6.982;2023-07-31T08:38:49;20.70;99.90
16243;DHT22;11719;51.052;6.982;2023-07-31T08:41:18;20.70;99.90
16243;DHT22;11719;51.052;6.982;2023-07-31T08:43:45;20.70;99.90
16243;DHT22;11719;51.052;6.982;2023-07-31T08:46:11;20.70;99.90
16243;DHT22;11719;51.052;6.982;2023-07-31T08:48:41;20.60;99.90
16243;DHT22;11719;51.052;6.982;2023-07-31T08:51:08;20.60;99.90
16243;DHT22;11719;51.052;6.982;2023-07-31T08:53:34;20.60;99.90
16243;DHT22;11719;51.052;6.982;2023-07-31T08:56:00;20.60;99.90
16243;DHT22;11719;51.052;6.982;2023-07-31T08:58:31;20.60;99.90
16243;DHT22;11719;51.052;6.982;2023-07-31T09:00:59;20.50;99.90
16243;DHT22;11719;51.052;6.982;2023-07-31T09:03:27;20.50;99.90
16243;DHT22;11719;51.052;6.982;2023-07-31T09:05:55;20.50;99.90
16243;DHT22;11719;51.052;6.982;2023-07-31T09:08:22;20.50;99.90
16243;DHT22;11719;51.052;6.982;2023-07-31T09:10:48;20.50;99.90
16243;DHT22;11719;51.052;6.982;2023-07-31T09:13:15;20.50;99.90
16243;DHT22;11719;51.052;6.982;2023-07-31T09:15:44;20.50;99.90
16243;DHT22;11719;51.052;6.982;2023-07-31T09:18:10;20.50;99.90
16243;DHT22;11719;51.052;6.982;2023-07-31T09:20:37;20.50;99.90
16243;DHT22;11719;51.052;6.982;2023-07-31T09:23:11;20.50;99.90
16243;DHT22;11719;51.052;6.982;2023-07-31T09:25:43;20.60;99.90
16243;DHT22;11719;51.052;6.982;2023-07-31T09:28:10;20.70;99.90
16243;DHT22;11719;51.052;6.982;2023-07-31T09:30:50;20.70;99.90
16243;DHT22;11719;51.052;6.982;2023-07-31T09:33:18;20.80;99.90
16243;DHT22;11719;51.052;6.982;2023-07-31T09:35:50;20.70;99.90
16243;DHT22;11719;51.052;6.982;2023-07-31T09:38:17;20.70;99.90
16243;DHT22;11719;51.052;6.982;2023-07-31T09:40:47;20.70;99.90
16243;DHT22;11719;51.052;6.982;2023-07-31T09:43:27;20.80;99.90
16243;DHT22;11719;51.052;6.982;2023-07-31T09:45:57;20.80;99.90
16243;DHT22;11719;51.052;6.982;2023-07-31T09:48:24;20.90;99.90
16243;DHT22;11719;51.052;6.982;2023-07-31T09:50:53;21.00;99.90
16243;DHT22;11719;51.052;6.982;2023-07-31T09:53:28;21.00;99.90
16243;DHT22;11719;51.052;6.982;2023-07-31T09:56:01;20.90;99.90
16243;DHT22;11719;51.052;6.982;2023-07-31T09:58:29;20.90;99.90
16243;DHT22;11719;51.052;6.982;2023-07-31T10:00:57;20.90;99.90
16243;DHT22;11719;51.052;6.982;2023-07-31T10:03:25;20.90;99.90
16243;DHT22;11719;51.052;6.982;2023-07-31T10:05:53;20.90;99.90
16243;DHT22;11719;51.052;6.982;2023-07-31T10:08:26;20.90;99.90
16243;DHT22;11719;51.052;6.982;2023-07-31T10:10:58;21.00;99.90
16243;DHT22;11719;51.052;6.982;2023-07-31T10:13:25;21.00;99.90
16243;DHT22;11719;51.052;6.982;2023-07-31T10:15:54;21.10;99.90
16243;DHT22;11719;51.052;6.982;2023-07-31T10:18:20;21.10;99.90
16243;DHT22;11719;51.052;6.982;2023-07-31T10:20:47;21.10;99.90
16243;DHT22;11719;51.052;6.982;2023-07-31T10:23:13;21.10;99.90
16243;DHT22;11719;51.052;6.982;2023-07-31T10:25:40;21.20;99.90
16243;DHT22;11719;51.052;6.982;2023-07-31T10:28:06;21.20;99.90
16243;DHT22;11719;51.052;6.982;2023-07-31T10:30:33;21.20;99.90
16243;DHT22;11719;51.052;6.982;2023-07-31T10:33:03;21.20;99.90
16243;DHT22;11719;51.052;6.982;2023-07-31T10:35:29;21.20;99.90
16243;DHT22;11719;51.052;6.982;2023-07-31T10:37:55;21.20;99.90
16243;DHT22;11719;51.052;6.982;2023-07-31T10:40:25;21.10;99.90
16243;DHT22;11719;51.052;6.982;2023-07-31T10:42:54;21.10;99.90
16243;DHT22;11719;51.052;6.982;2023-07-31T10:45:38;21.10;99.90
16243;DHT22;11719;51.052;6.982;2023-07-31T10:48:14;21.10;99.90
16243;DHT22;11719;51.052;6.982;2023-07-31T10:50:51;21.10;99.90
16243;DHT22;11719;51.052;6.982;2023-07-31T10:53:32;21.10;99.90
16243;DHT22;11719;51.052;6.982;2023-07-31T10:55:59;21.10;99.90
16243;DHT22;11719;51.052;6.982;2023-07-31T10:58:29;21.00;99.90
16243;DHT22;11719;51.052;6.982;2023-07-31T11:00:59;21.10;99.90
16243;DHT22;11719;51.052;6.982;2023-07-31T11:03:41;21.10;99.90
16243;DHT22;11719;51.052;6.982;2023-07-31T11:06:08;21.20;99.90
16243;DHT22;11719;51.052;6.982;2023-07-31T11:08:35;21.10;99.90
16243;DHT22;11719;51.052;6.982;2023-07-31T11:11:08;21.10;99.90
16243;DHT22;11719;51.052;6.982;2023-07-31T11:13:44;21.10;99.90
16243;DHT22;11719;51.052;6.982;2023-07-31T11:16:19;21.10;99.90
16243;DHT22;11719;51.052;6.982;2023-07-31T11:18:49;21.00;99.90
16243;DHT22;11719;51.052;6.982;2023-07-31T11:21:26;21.10;99.90
16243;DHT22;11719;51.052;6.982;2023-07-31T11:23:53;21.00;99.90
16243;DHT22;11719;51.052;6.982;2023-07-31T11:26:23;21.00;99.90
16243;DHT22;11719;51.052;6.982;2023-07-31T11:28:50;21.10;99.90
16243;DHT22;11719;51.052;6.982;2023-07-31T11:31:17;21.20;99.90
16243;DHT22;11719;51.052;6.982;2023-07-31T11:33:44;21.30;99.90
16243;DHT22;11719;51.052;6.982;2023-07-31T11:36:20;21.40;99.90
16243;DHT22;11719;51.052;6.982;2023-07-31T11:38:46;21.40;99.90
16243;DHT22;11719;51.052;6.982;2023-07-31T11:41:16;21.40;99.90
16243;DHT22;11719;51.052;6.982;2023-07-31T11:43:42;21.30;99.90
16243;DHT22;11719;51.052;6.982;2023-07-31T11:46:09;21.30;99.90
16243;DHT22;11719;51.052;6.982;2023-07-31T11:48:36;21.30;99.90
16243;DHT22;11719;51.052;6.982;2023-07-31T11:51:04;21.30;99.90
16243;DHT22;11719;51.052;6.982;2023-07-31T11:53:40;21.30;99.90
16243;DHT22;11719;51.052;6.982;2023-07-31T11:56:09;21.40;99.90
16243;DHT22;11719;51.052;6.982;2023-07-31T11:58:37;21.40;99.90
16243;DHT22;11719;51.052;6.982;2023-07-31T12:01:04;21.40;99.90
16243;DHT22;11719;51.052;6.982;2023-07-31T12:03:31;21.40;99.90
16243;DHT22;11719;51.052;6.982;2023-07-31T12:05:58;21.40;99.90
16243;DHT22;11719;51.052;6.982;2023-07-31T12:08:25;21.40;99.90
16243;DHT22;11719;51.052;6.982;2023-07-31T12:10:52;21.40;99.90
16243;DHT22;11719;51.052;6.982;2023-07-31T12:13:23;21.40;99.90
16243;DHT22;11719;51.052;6.982;2023-07-31T12:15:57;21.40;99.90
16243;DHT22;11719;51.052;6.982;2023-07-31T12:18:26;21.40;99.90
16243;DHT22;11719;51.052;6.982;2023-07-31T12:20:59;21.40;99.90
16243;DHT22;11719;51.052;6.982;2023-07-31T12:23:30;21.50;99.90
16243;DHT22;11719;51.052;6.982;2023-07-31T12:26:16;21.40;99.90
16243;DHT22;11719;51.052;6.982;2023-07-31T12:28:44;21.40;99.90
16243;DHT22;11719;51.052;6.982;2023-07-31T12:31:12;21.40;99.90
16243;DHT22;11719;51.052;6.982;2023-07-31T12:33:41;21.40;99.90
16243;DHT22;11719;51.052;6.982;2023-07-31T12:36:13;21.30;99.90
16243;DHT22;11719;51.052;6.982;2023-07-31T12:38:41;21.30;99.90
16243;DHT22;11719;51.052;6.982;2023-07-31T12:41:09;21.30;99.90
16243;DHT22;11719;51.052;6.982;2023-07-31T12:43:38;21.30;99.90
16243;DHT22;11719;51.052;6.982;2023-07-31T12:46:05;21.30;99.90
16243;DHT22;11719;51.052;6.982;2023-07-31T12:48:33;21.30;99.90
16243;DHT22;11719;51.052;6.982;2023-07-31T12:51:00;21.30;99.90
16243;DHT22;11719;51.052;6.982;2023-07-31T12:53:26;21.30;99.90
16243;DHT22;11719;51.052;6.982;2023-07-31T12:55:52;21.40;99.90
16243;DHT22;11719;51.052;6.982;2023-07-31T12:58:18;21.40;99.90
16243;DHT22;11719;51.052;6.982;2023-07-31T13:00:44;21.40;99.90
16243;DHT22;11719;51.052;6.982;2023-07-31T13:03:10;21.40;99.90
16243;DHT22;11719;51.052;6.982;2023-07-31T13:05:36;21.40;99.90
16243;DHT22;11719;51.052;6.982;2023-07-31T13:08:02;21.50;99.90
16243;DHT22;11719;51.052;6.982;2023-07-31T13:10:28;21.50;99.90
16243;DHT22;11719;51.052;6.982;2023-07-31T13:12:55;21.40;99.90
16243;DHT22;11719;51.052;6.982;2023-07-31T13:15:21;21.50;99.90
16243;DHT22;11719;51.052;6.982;2023-07-31T13:17:47;21.50;99.90
16243;DHT22;11719;51.052;6.982;2023-07-31T13:20:13;21.50;99.90
16243;DHT22;11719;51.052;6.982;2023-07-31T13:22:39;21.50;99.90
16243;DHT22;11719;51.052;6.982;2023-07-31T13:25:05;21.50;99.90
16243;DHT22;11719;51.052;6.982;2023-07-31T13:27:32;21.50;99.90
16243;DHT22;11719;51.052;6.982;2023-07-31T13:29:58;21.50;99.90
16243;DHT22;11719;51.052;6.982;2023-07-31T13:32:24;21.50;99.90
16243;DHT22;11719;51.052;6.982;2023-07-31T13:34:50;21.50;99.90
16243;DHT22;11719;51.052;6.982;2023-07-31T13:37:16;21.60;99.90
16243;DHT22;11719;51.052;6.982;2023-07-31T13:39:42;21.60;99.90
16243;DHT22;11719;51.052;6.982;2023-07-31T13:42:09;21.60;99.90
16243;DHT22;11719;51.052;6.982;2023-07-31T13:44:40;21.60;99.90
16243;DHT22;11719;51.052;6.982;2023-07-31T13:47:08;21.70;99.90
16243;DHT22;11719;51.052;6.982;2023-07-31T13:49:35;21.80;99.90
16243;DHT22;11719;51.052;6.982;2023-07-31T13:52:02;21.80;99.90
16243;DHT22;11719;51.052;6.982;2023-07-31T13:54:28;21.80;99.90
16243;DHT22;11719;51.052;6.982;2023-07-31T13:56:54;21.80;99.90
16243;DHT22;11719;51.052;6.982;2023-07-31T13:59:20;21.80;99.90
16243;DHT22;11719;51.052;6.982;2023-07-31T14:01:46;21.90;99.90
16243;DHT22;11719;51.052;6.982;2023-07-31T14:04:13;21.90;99.90
16243;DHT22;11719;51.052;6.982;2023-07-31T14:06:39;22.00;99.90
16243;DHT22;11719;51.052;6.982;2023-07-31T14:09:05;22.00;99.90
16243;DHT22;11719;51.052;6.982;2023-07-31T14:11:31;22.00;99.90
16243;DHT22;11719;51.052;6.982;2023-07-31T14:13:57;22.00;99.90
16243;DHT22;11719;51.052;6.982;2023-07-31T14:16:23;22.00;99.90
16243;DHT22;11719;51.052;6.982;2023-07-31T14:18:49;22.00;99.90
16243;DHT22;11719;51.052;6.982;2023-07-31T14:21:15;22.00;99.90
16243;DHT22;11719;51.052;6.982;2023-07-31T14:23:41;21.90;99.90
16243;DHT22;11719;51.052;6.982;2023-07-31T14:26:07;21.90;99.90
16243;DHT22;11719;51.052;6.982;2023-07-31T14:28:33;22.00;99.90
16243;DHT22;11719;51.052;6.982;2023-07-31T14:30:59;22.00;99.90
16243;DHT22;11719;51.052;6.982;2023-07-31T14:33:25;21.90;99.90
16243;DHT22;11719;51.052;6.982;2023-07-31T14:35:51;21.90;99.90
16243;DHT22;11719;51.052;6.982;2023-07-31T14:38:17;21.90;99.90
16243;DHT22;11719;51.052;6.982;2023-07-31T14:40:43;21.90;99.90
16243;DHT22;11719;51.052;6.982;2023-07-31T14:43:09;21.90;99.90
16243;DHT22;11719;51.052;6.982;2023-07-31T14:45:35;21.80;99.90
16243;DHT22;11719;51.052;6.982;2023-07-31T14:48:01;21.80;99.90
16243;DHT22;11719;51.052;6.982;2023-07-31T14:50:26;21.80;99.90
16243;DHT22;11719;51.052;6.982;2023-07-31T14:52:52;21.80;99.90
16243;DHT22;11719;51.052;6.982;2023-07-31T14:55:19;21.70;99.90
16243;DHT22;11719;51.052;6.982;2023-07-31T14:57:45;21.80;99.90
16243;DHT22;11719;51.052;6.982;2023-07-31T15:00:11;21.80;99.90
16243;DHT22;11719;51.052;6.982;2023-07-31T15:02:38;21.80;99.90
16243;DHT22;11719;51.052;6.982;2023-07-31T15:05:04;21.90;99.90
16243;DHT22;11719;51.052;6.982;2023-07-31T15:07:31;21.90;99.90
16243;DHT22;11719;51.052;6.982;2023-07-31T15:09:57;21.80;99.90
16243;DHT22;11719;51.052;6.982;2023-07-31T15:12:23;21.90;99.90
16243;DHT22;11719;51.052;6.982;2023-07-31T15:14:49;21.90;99.90
16243;DHT22;11719;51.052;6.982;2023-07-31T15:17:15;21.80;99.90
16243;DHT22;11719;51.052;6.982;2023-07-31T15:19:41;21.80;99.90
16243;DHT22;11719;51.052;6.982;2023-07-31T15:22:07;21.80;99.90
16243;DHT22;11719;51.052;6.982;2023-07-31T15:24:33;21.80;99.90
16243;DHT22;11719;51.052;6.982;2023-07-31T15:26:59;21.80;99.90
16243;DHT22;11719;51.052;6.982;2023-07-31T15:29:27;21.80;99.90
16243;DHT22;11719;51.052;6.982;2023-07-31T15:31:54;21.80;99.90
16243;DHT22;11719;51.052;6.982;2023-07-31T15:34:20;21.80;99.90
16243;DHT22;11719;51.052;6.982;2023-07-31T15:36:46;21.80;99.90
16243;DHT22;11719;51.052;6.982;2023-07-31T15:39:12;21.80;99.90
16243;DHT22;11719;51.052;6.982;2023-07-31T15:41:38;21.80;99.90